LIPE/BLQ METAR and TAF weather

Enter ICAO airport designator
Station Type Date Time Source
LIPE METAR 2022/09/26 08:20 UTC NOAA

LIPE 260820Z 23003KT 180V280 CAVOK 17/13 Q1008


Station Type Date Time Source
LIPE Decoded METAR 2022/09/26 08:20 UTC NOAA

Bologna / Borgo Panigale, Italy (LIPE) 44-32N 011-18E 49M
Sep 26, 2022 - 04:20 AM EDT / 2022.09.26 0820 UTC
Wind: from the SW (230 degrees) at 3 MPH (3 KT) (direction variable):0
Visibility: greater than 7 mile(s):0
Temperature: 62 F (17 C)
Dew Point: 55 F (13 C)
Relative Humidity: 77%
Pressure (altimeter): 29.77 in. Hg (1008 hPa)
ob: LIPE 260820Z 23003KT 180V280 CAVOK 17/13 Q1008
cycle: 8

Station Type Date Time Source
LIPE TAF 2022/09/26 06:21 UTC NOAA

TAF LIPE 260500Z 2606/2706 VRB05KT 7000 BKN015

Example: see airport list